Kingman Township, Maine
Current Conditions -  °F | °C
As of 7:53 PM on Saturday 20 Dec 2014 (Local Time) from KMLT Reporting Station
Overcast Overcast  
Wind Chill: 20°   Ceiling: 1500
Heat Index: 20°   Visibility: 10mi
Dew Point: 16°   Wind: 0mph
Humidity: 85%   Direction: NA
Pressure: 30.38"   Gusts: NA
Location:  45.6117°N, 68.2294°W
Report Text: KMLT 210053Z AUTO 00000KT 10SM OVC015 M07/M09 A3038 RMK AO2 SLP300 T10671089
Loading
Personal Weather Stations






























Interactive Weather Map New forecast layout! Learn more

10-Day Weather Forecast

Advertisements
Track Severe Weather on mobile